Time;durP1;ratioP1;P1;durP2;ratioP2;P2;SDS_P1;SDS_P2;PMS_P1;PMS_P2;Temp;Humidity;BMP_temperature;BMP_pressure;BME280_temperature;BME280_humidity;BME280_pressure;Samples;Min_cycle;Max_cycle;Signal;HPM_P1;HPM_P2
2023/07/17 00:00:12;80972.00;0.27;140.72;0.00;0.00;0.62;;;;;22.90;1.00;;;;;;2280371;60;1831;-86
2023/07/17 00:02:39;0.00;0.00;0.62;0.00;0.00;0.62;;;;;22.70;1.00;;;;;;2280417;60;1462;-87
2023/07/17 00:05:07;52411.00;0.17;91.36;0.00;0.00;0.62;;;;;22.80;1.00;;;;;;2280338;60;1607;-86
2023/07/17 00:07:34;126745.00;0.42;219.72;0.00;0.00;0.62;;;;;22.80;1.00;;;;;;2280020;60;1064;-85
2023/07/17 00:10:03;0.00;0.00;0.62;0.00;0.00;0.62;;;;;22.90;1.00;;;;;;2280207;61;1120;-86
2023/07/17 00:12:30;37538.00;0.13;65.63;0.00;0.00;0.62;;;;;23.20;1.00;;;;;;2280064;61;1386;-85
2023/07/17 00:14:57;0.00;0.00;0.62;0.00;0.00;0.62;;;;;23.40;1.00;;;;;;2280163;60;1058;-87
2023/07/17 00:17:24;30094.00;0.10;52.75;0.00;0.00;0.62;;;;;23.40;1.00;;;;;;2279967;61;1998;-85
2023/07/17 00:19:55;0.00;0.00;0.62;0.00;0.00;0.62;;;;;23.40;1.00;;;;;;2280335;60;995;-85
2023/07/17 00:22:23;59104.00;0.20;102.93;0.00;0.00;0.62;;;;;23.40;1.00;;;;;;2280176;60;1387;-86
2023/07/17 00:24:51;17985.00;0.06;31.78;0.00;0.00;0.62;;;;;23.40;1.00;;;;;;2280229;60;1089;-85
2023/07/17 00:27:20;198071.00;0.66;342.60;0.00;0.00;0.62;;;;;23.20;1.00;;;;;;2280200;60;1095;-87
2023/07/17 00:29:47;119995.00;0.40;208.07;0.00;0.00;0.62;;;;;23.40;1.00;;;;;;2280129;60;1651;-87
2023/07/17 00:32:14;18495.00;0.06;32.66;0.00;0.00;0.62;;;;;23.20;1.00;;;;;;2280121;60;1379;-86
2023/07/17 00:34:41;88207.00;0.29;153.21;0.00;0.00;0.62;;;;;23.00;1.00;;;;;;2280051;60;1180;-86
2023/07/17 00:37:09;64240.00;0.21;111.81;0.00;0.00;0.62;;;;;23.20;1.00;;;;;;2280225;60;1918;-86
2023/07/17 00:39:36;0.00;0.00;0.62;0.00;0.00;0.62;;;;;23.30;1.00;;;;;;2280323;60;1126;-86
2023/07/17 00:42:03;31029.00;0.10;54.36;0.00;0.00;0.62;;;;;23.10;1.00;;;;;;2280140;60;1393;-87
2023/07/17 00:44:31;0.00;0.00;0.62;0.00;0.00;0.62;;;;;23.10;1.00;;;;;;2280232;60;1040;-87
2023/07/17 00:47:00;118042.00;0.39;204.70;38764.00;0.13;67.75;;;;;23.00;1.00;;;;;;2280132;60;1181;-86
2023/07/17 00:49:30;425375.00;1.42;733.43;2946.00;0.01;5.73;;;;;22.70;1.00;;;;;;2280248;60;1082;-87
2023/07/17 00:51:58;88428.00;0.29;153.59;0.00;0.00;0.62;;;;;22.50;1.00;;;;;;2280333;60;1475;-85
2023/07/17 00:54:28;21793.00;0.07;38.37;0.00;0.00;0.62;;;;;22.70;1.00;;;;;;2280226;60;1016;-86
2023/07/17 00:56:58;225637.00;0.75;390.04;0.00;0.00;0.62;;;;;23.00;1.00;;;;;;2280135;61;1919;-86
2023/07/17 00:59:25;146817.00;0.49;254.32;43131.00;0.14;75.31;;;;;23.20;1.00;;;;;;2280052;60;1680;-86
2023/07/17 01:01:54;92257.00;0.31;160.20;0.00;0.00;0.62;;;;;23.40;1.00;;;;;;2280171;60;1273;-86
2023/07/17 01:04:21;132972.00;0.44;230.45;0.00;0.00;0.62;;;;;23.60;1.00;;;;;;2280185;60;1152;-85
2023/07/17 01:06:48;276595.00;0.92;477.68;17258.00;0.06;30.52;;;;;23.70;1.00;;;;;;2280230;60;1586;-86
2023/07/17 01:09:17;104648.00;0.35;181.59;0.00;0.00;0.62;;;;;23.70;1.00;;;;;;2279945;60;1018;-86
2023/07/17 01:11:44;144053.00;0.48;249.56;0.00;0.00;0.62;;;;;23.60;1.00;;;;;;2279895;61;1287;-85
2023/07/17 01:14:16;330666.00;1.10;570.63;17023.00;0.06;30.11;;;;;23.50;1.00;;;;;;2280000;61;1093;-86
2023/07/17 01:16:44;163885.00;0.55;283.73;0.00;0.00;0.62;;;;;23.40;1.00;;;;;;2279990;60;1921;-87
2023/07/17 01:19:12;131517.00;0.44;227.95;0.00;0.00;0.62;;;;;23.60;1.00;;;;;;2279923;60;1704;-86
2023/07/17 01:21:45;8248.00;0.03;14.91;0.00;0.00;0.62;;;;;23.60;1.00;;;;;;2280029;61;1363;-86
2023/07/17 01:24:13;0.00;0.00;0.62;0.00;0.00;0.62;;;;;23.70;1.00;;;;;;2279904;60;1124;-85
2023/07/17 01:26:40;141941.00;0.47;245.92;0.00;0.00;0.62;;;;;23.80;1.00;;;;;;2279941;60;1481;-86
2023/07/17 01:29:07;181798.00;0.61;314.59;0.00;0.00;0.62;;;;;23.80;1.00;;;;;;2280015;60;1149;-86
2023/07/17 01:31:34;5969.00;0.02;10.96;0.00;0.00;0.62;;;;;24.00;1.00;;;;;;2279775;60;1371;-85
2023/07/17 01:34:01;186035.00;0.62;321.88;0.00;0.00;0.62;;;;;24.00;1.00;;;;;;2280114;60;1698;-85
2023/07/17 01:36:27;339212.00;1.13;585.32;0.00;0.00;0.62;;;;;23.90;1.00;;;;;;2280093;60;1336;-85
2023/07/17 01:38:55;154082.00;0.51;266.84;0.00;0.00;0.62;;;;;23.70;1.00;;;;;;2280145;60;1997;-85
2023/07/17 01:41:24;65553.00;0.22;114.08;0.00;0.00;0.62;;;;;23.50;1.00;;;;;;2279978;61;1370;-84
2023/07/17 01:43:51;13345.00;0.04;23.74;0.00;0.00;0.62;;;;;23.60;1.00;;;;;;2279723;60;1102;-85
2023/07/17 01:46:18;144238.00;0.48;249.88;0.00;0.00;0.62;;;;;23.60;1.00;;;;;;2280151;60;1138;-85
2023/07/17 01:48:45;157512.00;0.53;272.75;0.00;0.00;0.62;;;;;23.60;1.00;;;;;;2279901;60;1024;-86
2023/07/17 01:51:12;362402.00;1.21;625.18;0.00;0.00;0.62;;;;;23.80;1.00;;;;;;2279508;61;2167;-85
2023/07/17 01:53:39;93334.00;0.31;162.06;0.00;0.00;0.62;;;;;23.70;1.00;;;;;;2279946;60;1176;-86
2023/07/17 01:56:06;284013.00;0.95;490.44;47282.00;0.16;82.49;;;;;23.80;1.00;;;;;;2279728;60;1143;-86
2023/07/17 01:58:35;139501.00;0.47;241.71;0.00;0.00;0.62;;;;;23.70;1.00;;;;;;2279890;61;1915;-85
2023/07/17 02:01:03;134217.00;0.45;232.60;0.00;0.00;0.62;;;;;23.70;1.00;;;;;;2279722;60;1394;-86
2023/07/17 02:03:31;239567.00;0.80;414.01;10636.00;0.04;19.05;;;;;23.80;1.00;;;;;;2279833;61;1510;-85
2023/07/17 02:05:58;22639.00;0.08;39.84;0.00;0.00;0.62;;;;;23.80;1.00;;;;;;2279950;60;1105;-87
2023/07/17 02:08:25;0.00;0.00;0.62;0.00;0.00;0.62;;;;;23.50;1.00;;;;;;2280008;60;1168;-84
2023/07/17 02:10:53;153613.00;0.51;266.03;0.00;0.00;0.62;;;;;23.40;1.00;;;;;;2279874;60;1346;-86
2023/07/17 02:13:20;392892.00;1.31;677.59;45060.00;0.15;78.64;;;;;23.40;1.00;;;;;;2280054;60;996;-87
2023/07/17 02:15:48;231367.00;0.77;399.90;0.00;0.00;0.62;;;;;23.40;1.00;;;;;;2279919;60;1147;-86
2023/07/17 02:18:15;141409.00;0.47;245.00;0.00;0.00;0.62;;;;;23.60;1.00;;;;;;2279818;61;2000;-86
2023/07/17 02:20:42;40155.00;0.13;70.16;0.00;0.00;0.62;;;;;23.70;1.00;;;;;;2279883;60;1148;-86
2023/07/17 02:23:09;206477.00;0.69;357.07;0.00;0.00;0.62;;;;;23.60;1.00;;;;;;2279864;60;1382;-86
2023/07/17 02:25:36;104316.00;0.35;181.02;0.00;0.00;0.62;;;;;23.40;1.00;;;;;;2279850;60;1062;-87
2023/07/17 02:28:03;385251.00;1.28;664.45;14805.00;0.05;26.27;;;;;23.40;1.00;;;;;;2279970;60;1140;-86
2023/07/17 02:30:30;265598.00;0.89;458.77;0.00;0.00;0.62;;;;;23.40;1.00;;;;;;2279970;60;1058;-84
2023/07/17 02:32:58;146747.00;0.49;254.20;0.00;0.00;0.62;;;;;23.40;1.00;;;;;;2279938;60;1353;-86
2023/07/17 02:35:25;140713.00;0.47;243.80;0.00;0.00;0.62;;;;;23.40;1.00;;;;;;2279978;60;1054;-86
2023/07/17 02:37:52;245940.00;0.82;424.97;0.00;0.00;0.62;;;;;23.40;1.00;;;;;;2279948;60;2000;-87
2023/07/17 02:40:19;60003.00;0.20;104.48;0.00;0.00;0.62;;;;;23.40;1.00;;;;;;2279906;60;1135;-87
2023/07/17 02:42:46;167903.00;0.56;290.65;0.00;0.00;0.62;;;;;23.50;1.00;;;;;;2279791;60;1280;-87
2023/07/17 02:45:13;0.00;0.00;0.62;0.00;0.00;0.62;;;;;23.60;1.00;;;;;;2279427;61;1134;-87
2023/07/17 02:47:40;229676.00;0.77;396.99;49888.00;0.17;86.99;;;;;23.60;1.00;;;;;;2279810;60;1155;-87
2023/07/17 02:50:09;254314.00;0.85;439.37;17238.00;0.06;30.49;;;;;23.60;1.00;;;;;;2279707;60;1110;-87
2023/07/17 02:52:36;19576.00;0.07;34.54;0.00;0.00;0.62;;;;;23.40;1.00;;;;;;2279648;60;1355;-85
2023/07/17 02:55:05;0.00;0.00;0.62;0.00;0.00;0.62;;;;;23.30;1.00;;;;;;2280469;60;1026;-88
2023/07/17 02:57:34;278590.00;0.93;481.11;16283.00;0.05;28.83;;;;;23.40;1.00;;;;;;2280704;60;1986;-87
2023/07/17 03:00:04;118832.00;0.40;206.07;0.00;0.00;0.62;;;;;23.40;1.00;;;;;;2280777;60;1029;-87
2023/07/17 03:02:30;143748.00;0.48;249.03;0.00;0.00;0.62;;;;;23.30;1.00;;;;;;2280848;60;1778;-87
2023/07/17 03:04:57;165994.00;0.55;287.37;0.00;0.00;0.62;;;;;23.10;1.00;;;;;;2280856;60;1182;-85
2023/07/17 03:07:25;0.00;0.00;0.62;0.00;0.00;0.62;;;;;23.20;1.00;;;;;;2280841;60;1156;-86
2023/07/17 03:09:52;514348.00;1.71;886.53;75322.00;0.25;130.96;;;;;23.30;1.00;;;;;;2280782;60;1296;-86
2023/07/17 03:12:19;125745.00;0.42;217.99;0.00;0.00;0.62;;;;;23.30;1.00;;;;;;2280717;60;1338;-85
2023/07/17 03:14:46;0.00;0.00;0.62;0.00;0.00;0.62;;;;;23.30;1.00;;;;;;2280652;60;1132;-86
2023/07/17 03:17:13;166710.00;0.56;288.60;0.00;0.00;0.62;;;;;23.30;1.00;;;;;;2294066;55;3766;-89
2023/07/17 03:19:40;0.00;0.00;0.62;0.00;0.00;0.62;;;;;23.30;1.00;;;;;;2280674;60;1991;-87
2023/07/17 03:22:07;519812.00;1.73;895.94;107263.00;0.36;186.11;;;;;22.90;1.00;;;;;;2280861;60;1533;-88
2023/07/17 03:27:04;680083.00;2.27;1172.72;31900.00;0.11;55.87;;;;;22.70;1.00;;;;;;2282642;60;1426;-90
2023/07/17 03:29:31;136512.00;0.46;236.56;0.00;0.00;0.62;;;;;22.70;1.00;;;;;;2280708;60;1691;-86
2023/07/17 03:31:58;201030.00;0.67;347.70;0.00;0.00;0.62;;;;;22.60;1.00;;;;;;2280831;60;1293;-89
2023/07/17 03:36:54;438556.00;1.46;756.10;0.00;0.00;0.62;;;;;22.10;1.70;;;;;;2282686;60;1363;-89
2023/07/17 03:39:21;154648.00;0.52;267.82;0.00;0.00;0.62;;;;;22.10;1.80;;;;;;2280680;60;1923;-86
2023/07/17 03:41:48;338541.00;1.13;584.17;0.00;0.00;0.62;;;;;22.10;2.10;;;;;;2280688;60;1576;-86
2023/07/17 03:44:16;368769.00;1.23;636.12;53287.00;0.18;92.87;;;;;22.30;1.60;;;;;;2280674;60;2387;-89
2023/07/17 03:46:44;153658.00;0.51;266.11;0.00;0.00;0.62;;;;;22.40;1.00;;;;;;2280709;60;1112;-86
2023/07/17 03:49:11;53882.00;0.18;93.90;0.00;0.00;0.62;;;;;22.50;1.00;;;;;;2280704;60;1233;-88
2023/07/17 03:51:37;301483.00;1.00;520.47;0.00;0.00;0.62;;;;;22.40;1.00;;;;;;2280620;60;1467;-85
2023/07/17 03:54:04;140627.00;0.47;243.65;0.00;0.00;0.62;;;;;22.60;1.00;;;;;;2280545;60;1071;-86
2023/07/17 03:56:31;460814.00;1.54;794.39;123075.00;0.41;213.39;;;;;22.60;1.00;;;;;;2280805;60;2058;-88
2023/07/17 03:58:59;408133.00;1.36;703.79;74329.00;0.25;129.24;;;;;22.70;1.00;;;;;;2280533;60;1943;-86
2023/07/17 04:01:28;123532.00;0.41;214.17;0.00;0.00;0.62;;;;;22.80;1.00;;;;;;2280589;60;1253;-87
2023/07/17 04:03:55;273494.00;0.91;472.35;24594.00;0.08;43.22;;;;;22.80;1.00;;;;;;2280593;60;1687;-85
2023/07/17 04:06:22;79537.00;0.27;138.24;0.00;0.00;0.62;;;;;22.70;1.00;;;;;;2280423;60;1643;-85
2023/07/17 04:08:48;125034.00;0.42;216.77;8689.00;0.03;15.68;;;;;22.60;1.00;;;;;;2280718;60;1093;-85
2023/07/17 04:11:15;148091.00;0.49;256.52;0.00;0.00;0.62;;;;;22.70;1.00;;;;;;2280529;60;1546;-87
2023/07/17 04:13:44;72067.00;0.24;125.33;0.00;0.00;0.62;;;;;22.80;1.00;;;;;;2280810;60;1114;-87
2023/07/17 04:16:11;19310.00;0.06;34.08;0.00;0.00;0.62;;;;;22.90;1.00;;;;;;2280781;60;1099;-87
2023/07/17 04:18:39;193464.00;0.64;334.67;0.00;0.00;0.62;;;;;22.80;1.00;;;;;;2280641;60;1915;-86
2023/07/17 04:21:06;140513.00;0.47;243.46;20112.00;0.07;35.46;;;;;22.80;1.00;;;;;;2280620;60;1293;-85
2023/07/17 04:23:33;109008.00;0.36;189.12;0.00;0.00;0.62;;;;;22.90;1.00;;;;;;2280468;60;1039;-87
2023/07/17 04:26:00;275207.00;0.92;475.30;35668.00;0.12;62.39;;;;;22.90;1.00;;;;;;2280616;60;1309;-87
2023/07/17 04:28:26;337055.00;1.12;581.61;0.00;0.00;0.62;;;;;22.80;1.00;;;;;;2280641;60;1095;-88
2023/07/17 04:30:53;120650.00;0.40;209.20;0.00;0.00;0.62;;;;;22.90;1.00;;;;;;2280513;60;1379;-86
2023/07/17 04:33:20;133519.00;0.45;231.40;0.00;0.00;0.62;;;;;23.00;1.00;;;;;;2280567;60;1779;-87
2023/07/17 04:35:48;170573.00;0.57;295.25;0.00;0.00;0.62;;;;;23.00;1.00;;;;;;2280556;60;2212;-85
2023/07/17 04:38:15;148686.00;0.50;257.54;0.00;0.00;0.62;;;;;23.30;1.00;;;;;;2282048;55;3756;-86
2023/07/17 04:40:42;142858.00;0.48;247.50;0.00;0.00;0.62;;;;;23.30;1.00;;;;;;2280668;60;1728;-86
2023/07/17 04:43:09;193602.00;0.65;334.91;0.00;0.00;0.62;;;;;23.40;1.00;;;;;;2280633;60;1225;-87
2023/07/17 04:45:42;50099.00;0.17;87.36;0.00;0.00;0.62;;;;;23.30;1.00;;;;;;2280519;60;1132;-86
2023/07/17 04:48:09;66978.00;0.22;116.54;0.00;0.00;0.62;;;;;23.30;1.00;;;;;;2280519;60;1096;-87
2023/07/17 04:50:36;99336.00;0.33;172.43;0.00;0.00;0.62;;;;;23.40;1.00;;;;;;2280371;60;1090;-86
2023/07/17 04:53:04;210140.00;0.70;363.38;0.00;0.00;0.62;;;;;23.30;1.00;;;;;;2280421;60;1329;-86
2023/07/17 04:55:31;119953.00;0.40;208.00;0.00;0.00;0.62;;;;;23.60;1.00;;;;;;2280384;60;1023;-86
2023/07/17 04:57:58;410584.00;1.37;708.00;89011.00;0.30;154.60;;;;;23.70;1.00;;;;;;2280446;60;2008;-86
2023/07/17 05:00:24;333604.00;1.11;575.68;0.00;0.00;0.62;;;;;23.50;1.00;;;;;;2280431;60;1109;-86
2023/07/17 05:02:52;185152.00;0.62;320.36;0.00;0.00;0.62;;;;;23.60;1.00;;;;;;2280648;60;1294;-86
2023/07/17 05:05:19;79613.00;0.27;138.37;0.00;0.00;0.62;;;;;23.70;1.00;;;;;;2280412;60;1653;-87
2023/07/17 05:07:46;392819.00;1.31;677.46;6151.00;0.02;11.28;;;;;23.80;1.00;;;;;;2280531;60;957;-86
2023/07/17 05:10:14;0.00;0.00;0.62;0.00;0.00;0.62;;;;;24.10;1.00;;;;;;2280503;60;1032;-87
2023/07/17 05:12:41;102289.00;0.34;177.52;0.00;0.00;0.62;;;;;24.10;1.00;;;;;;2280491;60;1413;-84
2023/07/17 05:15:09;156321.00;0.52;270.70;0.00;0.00;0.62;;;;;24.40;1.00;;;;;;2280343;60;882;-89
2023/07/17 05:17:36;43637.00;0.15;76.18;0.00;0.00;0.62;;;;;24.20;1.00;;;;;;2280282;60;981;-85
2023/07/17 05:20:05;133789.00;0.45;231.86;0.00;0.00;0.62;;;;;24.30;1.00;;;;;;2280312;60;1931;-86
2023/07/17 05:22:32;301159.00;1.00;519.91;84433.00;0.28;146.69;;;;;24.70;1.00;;;;;;2280317;60;1709;-85
2023/07/17 05:24:59;101542.00;0.34;176.23;0.00;0.00;0.62;;;;;24.70;1.00;;;;;;2280497;60;1099;-86
2023/07/17 05:27:27;151839.00;0.51;262.98;0.00;0.00;0.62;;;;;24.90;1.00;;;;;;2280458;60;1143;-88
2023/07/17 05:29:54;144575.00;0.48;250.46;0.00;0.00;0.62;;;;;25.00;1.00;;;;;;2280445;60;1059;-89
2023/07/17 05:32:21;124916.00;0.42;216.56;0.00;0.00;0.62;;;;;24.90;1.00;;;;;;2280448;60;1557;-85
2023/07/17 05:34:49;350439.00;1.17;604.62;84215.00;0.28;146.32;;;;;25.10;1.00;;;;;;2280428;60;1106;-86
2023/07/17 05:37:18;14814.00;0.05;26.29;0.00;0.00;0.62;;;;;25.30;1.00;;;;;;2280355;60;1239;-86
2023/07/17 05:39:45;101862.00;0.34;176.79;0.00;0.00;0.62;;;;;25.30;1.00;;;;;;2280152;60;1905;-87
2023/07/17 05:42:11;104268.00;0.35;180.94;0.00;0.00;0.62;;;;;25.30;1.00;;;;;;2280370;60;1364;-87
2023/07/17 05:44:40;160917.00;0.54;278.62;0.00;0.00;0.62;;;;;25.50;1.00;;;;;;2280392;60;1014;-85
2023/07/17 05:47:07;366776.00;1.22;632.70;52144.00;0.17;90.89;;;;;25.60;1.00;;;;;;2280401;60;1077;-86
2023/07/17 05:49:34;168395.00;0.56;291.50;0.00;0.00;0.62;;;;;26.30;1.00;;;;;;2280447;60;901;-86
2023/07/17 05:54:30;1033492.00;3.44;1791.88;54140.00;0.18;94.35;;;;;28.80;1.00;;;;;;2282236;60;1415;-87
2023/07/17 05:56:57;198587.00;0.66;343.49;0.00;0.00;0.62;;;;;30.00;1.00;;;;;;2280204;60;1209;-88
2023/07/17 05:59:24;173270.00;0.58;299.90;0.00;0.00;0.62;;;;;30.30;1.00;;;;;;2290120;55;3817;-87
2023/07/17 06:01:52;220436.00;0.73;381.09;0.00;0.00;0.62;;;;;30.70;1.00;;;;;;2280044;60;1389;-87
2023/07/17 06:04:19;135287.00;0.45;234.45;0.00;0.00;0.62;;;;;31.50;1.00;;;;;;2280209;60;1034;-88
2023/07/17 06:06:46;189459.00;0.63;327.78;0.00;0.00;0.62;;;;;32.30;1.00;;;;;;2280092;60;1710;-88
2023/07/17 06:09:13;201317.00;0.67;348.19;0.00;0.00;0.62;;;;;32.60;1.00;;;;;;2280140;60;1732;-86
2023/07/17 06:11:40;155764.00;0.52;269.74;0.00;0.00;0.62;;;;;32.80;1.00;;;;;;2280074;60;1253;-88
2023/07/17 06:14:07;635346.00;2.12;1095.29;124679.00;0.42;216.15;;;;;32.60;1.00;;;;;;2280066;60;1677;-87
2023/07/17 06:16:34;112931.00;0.38;195.89;0.00;0.00;0.62;;;;;32.60;1.00;;;;;;2280159;60;1746;-88
2023/07/17 06:19:03;91789.00;0.31;159.40;0.00;0.00;0.62;;;;;31.70;1.00;;;;;;2280237;60;1919;-87
2023/07/17 06:21:30;182802.00;0.61;316.31;25053.00;0.08;44.02;;;;;31.30;1.00;;;;;;2280168;60;1391;-86
2023/07/17 06:23:56;193994.00;0.65;335.58;0.00;0.00;0.62;;;;;31.40;1.00;;;;;;2280288;60;978;-88
2023/07/17 06:26:23;228988.00;0.76;395.81;0.00;0.00;0.62;;;;;32.40;1.00;;;;;;2279882;60;1430;-88
2023/07/17 06:28:50;203896.00;0.68;352.63;0.00;0.00;0.62;;;;;33.00;1.00;;;;;;2279927;60;1073;-87
2023/07/17 06:31:17;222961.00;0.74;385.44;0.00;0.00;0.62;;;;;33.90;1.00;;;;;;2280096;60;1260;-87
2023/07/17 06:33:44;198346.00;0.66;343.08;0.00;0.00;0.62;;;;;34.10;1.00;;;;;;2280035;60;1003;-85
2023/07/17 06:36:12;383015.00;1.28;660.61;53726.00;0.18;93.63;;;;;34.80;1.00;;;;;;2279949;60;1137;-86
2023/07/17 06:38:39;614915.00;2.05;1059.98;211952.00;0.71;366.49;;;;;34.70;1.00;;;;;;2280089;60;1923;-88
2023/07/17 06:41:06;130917.00;0.44;226.91;0.00;0.00;0.62;;;;;34.00;1.00;;;;;;2280066;60;1394;-85
2023/07/17 06:43:33;85690.00;0.29;148.86;0.00;0.00;0.62;;;;;34.30;1.00;;;;;;2279993;60;2304;-86
2023/07/17 06:46:00;115186.00;0.38;199.78;27485.00;0.09;48.23;;;;;34.70;1.00;;;;;;2279930;60;1123;-86
2023/07/17 06:48:27;18227.00;0.06;32.20;0.00;0.00;0.62;;;;;35.40;1.00;;;;;;2280086;60;1016;-89
2023/07/17 06:50:54;276805.00;0.92;478.04;65125.00;0.22;113.34;;;;;36.00;1.00;;;;;;2280018;60;1385;-88
2023/07/17 06:53:22;153210.00;0.51;265.34;0.00;0.00;0.62;;;;;36.20;1.00;;;;;;2279987;60;1315;-88
2023/07/17 06:55:56;145770.00;0.49;252.52;0.00;0.00;0.62;;;;;36.60;1.00;;;;;;2280188;60;2031;-85
2023/07/17 06:58:23;153351.00;0.51;265.58;0.00;0.00;0.62;;;;;36.90;1.00;;;;;;2280021;60;1180;-86
2023/07/17 07:00:56;0.00;0.00;0.62;0.00;0.00;0.62;;;;;37.40;1.00;;;;;;2279960;60;1401;-87
2023/07/17 07:03:23;216189.00;0.72;373.79;0.00;0.00;0.62;;;;;37.30;1.00;;;;;;2279901;60;1560;-87
2023/07/17 07:05:57;108036.00;0.36;187.44;0.00;0.00;0.62;;;;;37.00;1.00;;;;;;2279870;60;1709;-88
2023/07/17 07:08:27;43647.00;0.15;76.20;0.00;0.00;0.62;;;;;36.00;1.00;;;;;;2279741;60;963;-83
2023/07/17 07:10:54;463896.00;1.55;799.69;58365.00;0.19;101.65;;;;;36.40;1.00;;;;;;2279752;60;1444;-84
2023/07/17 07:13:23;592286.00;1.97;1020.90;8333.00;0.03;15.06;;;;;36.60;1.00;;;;;;2279961;60;1262;-87
2023/07/17 07:15:51;132860.00;0.44;230.26;0.00;0.00;0.62;;;;;36.90;1.00;;;;;;2280003;60;1044;-87
2023/07/17 07:18:18;291320.00;0.97;503.00;0.00;0.00;0.62;;;;;37.10;1.00;;;;;;2279924;60;1786;-86
2023/07/17 07:20:46;177737.00;0.59;307.59;0.00;0.00;0.62;;;;;37.20;1.00;;;;;;2280026;60;2007;-86
2023/07/17 07:23:13;84778.00;0.28;147.29;0.00;0.00;0.62;;;;;37.20;1.00;;;;;;2279907;60;1396;-87
2023/07/17 07:25:42;169974.00;0.57;294.22;0.00;0.00;0.62;;;;;37.50;1.00;;;;;;2279742;60;1090;-87
2023/07/17 07:28:09;68525.00;0.23;119.21;0.00;0.00;0.62;;;;;37.10;1.00;;;;;;2279956;60;1097;-87
2023/07/17 07:30:36;115644.00;0.39;200.57;0.00;0.00;0.62;;;;;38.10;1.00;;;;;;2279980;60;1196;-87
2023/07/17 07:33:03;166663.00;0.56;288.52;0.00;0.00;0.62;;;;;38.20;1.00;;;;;;2279957;60;1316;-87
2023/07/17 07:35:30;124542.00;0.42;215.92;0.00;0.00;0.62;;;;;38.40;1.00;;;;;;2280025;60;1094;-89
2023/07/17 07:37:57;166240.00;0.55;287.79;0.00;0.00;0.62;;;;;38.80;1.00;;;;;;2279951;60;1041;-88
2023/07/17 07:40:25;7371.00;0.02;13.39;0.00;0.00;0.62;;;;;38.30;1.00;;;;;;2280081;60;1993;-87
2023/07/17 07:42:54;135060.00;0.45;234.05;0.00;0.00;0.62;;;;;38.50;1.00;;;;;;2280789;60;1665;-89
2023/07/17 07:45:22;145916.00;0.49;252.77;0.00;0.00;0.62;;;;;38.40;1.00;;;;;;2280820;60;984;-87
2023/07/17 07:47:49;229062.00;0.76;395.94;1473.00;0.00;3.17;;;;;38.00;1.00;;;;;;2280884;60;1682;-89
2023/07/17 07:50:16;148441.00;0.49;257.12;0.00;0.00;0.62;;;;;37.70;1.00;;;;;;2280770;60;1736;-88
2023/07/17 07:52:42;325798.00;1.09;562.26;0.00;0.00;0.62;;;;;37.60;1.00;;;;;;2280789;60;1564;-88
2023/07/17 07:55:09;431171.00;1.44;743.40;85662.00;0.29;148.82;;;;;38.00;1.00;;;;;;2280862;60;1098;-88
2023/07/17 07:57:36;216828.00;0.72;374.89;0.00;0.00;0.62;;;;;37.70;1.00;;;;;;2280835;60;1134;-87
2023/07/17 08:00:06;98117.00;0.33;170.32;0.00;0.00;0.62;;;;;37.80;1.00;;;;;;2280752;60;1989;-88
2023/07/17 08:02:33;168285.00;0.56;291.31;0.00;0.00;0.62;;;;;38.00;1.00;;;;;;2280771;60;1286;-88
2023/07/17 08:05:01;372293.00;1.24;642.18;0.00;0.00;0.62;;;;;37.60;1.00;;;;;;2280653;60;1698;-89
2023/07/17 08:07:28;143494.00;0.48;248.59;0.00;0.00;0.62;;;;;36.20;1.00;;;;;;2280840;60;922;-88
2023/07/17 08:09:55;13555.00;0.05;24.11;0.00;0.00;0.62;;;;;36.20;1.00;;;;;;2280768;60;1042;-90
2023/07/17 08:12:22;123820.00;0.41;214.67;0.00;0.00;0.62;;;;;37.00;1.00;;;;;;2280794;60;1365;-88
2023/07/17 08:14:50;394078.00;1.31;679.62;0.00;0.00;0.62;;;;;37.50;1.00;;;;;;2280759;60;1023;-90
2023/07/17 08:17:18;158215.00;0.53;273.96;0.00;0.00;0.62;;;;;37.70;1.00;;;;;;2280777;60;1120;-89
2023/07/17 08:19:45;217920.00;0.73;376.76;0.00;0.00;0.62;;;;;37.70;1.00;;;;;;2280675;60;1921;-88
2023/07/17 08:22:12;284810.00;0.95;491.81;0.00;0.00;0.62;;;;;36.10;1.00;;;;;;2280719;60;1569;-88
2023/07/17 08:24:39;149667.00;0.50;259.23;0.00;0.00;0.62;;;;;35.20;1.00;;;;;;2280705;60;1673;-89
2023/07/17 08:27:07;203570.00;0.68;352.07;0.00;0.00;0.62;;;;;35.30;1.00;;;;;;2280846;60;925;-88
2023/07/17 08:29:34;143229.00;0.48;248.14;0.00;0.00;0.62;;;;;36.40;1.00;;;;;;2280685;60;1706;-88
2023/07/17 08:32:01;179096.00;0.60;309.93;0.00;0.00;0.62;;;;;36.80;1.00;;;;;;2280654;60;1705;-89
2023/07/17 08:34:29;246368.00;0.82;425.70;0.00;0.00;0.62;;;;;37.10;1.00;;;;;;2312771;40;3567;-89
2023/07/17 08:36:56;299079.00;1.00;516.34;0.00;0.00;0.62;;;;;36.60;1.00;;;;;;2280634;60;1615;-88
2023/07/17 08:39:23;162564.00;0.54;281.46;0.00;0.00;0.62;;;;;36.40;1.00;;;;;;2280632;60;1998;-89
2023/07/17 08:41:50;405572.00;1.35;699.38;147.00;0.00;0.87;;;;;36.40;1.00;;;;;;2307724;56;3758;-89
2023/07/17 08:44:18;191941.00;0.64;332.05;0.00;0.00;0.62;;;;;36.30;1.00;;;;;;2280696;60;926;-89
2023/07/17 08:46:46;171979.00;0.57;297.68;0.00;0.00;0.62;;;;;36.70;1.00;;;;;;2280640;60;1670;-90
2023/07/17 08:49:17;272592.00;0.91;470.80;0.00;0.00;0.62;;;;;36.60;1.00;;;;;;2288583;40;3639;-89
2023/07/17 08:51:48;280231.00;0.93;483.93;0.00;0.00;0.62;;;;;35.90;1.00;;;;;;2280537;60;1671;-89
2023/07/17 08:54:18;147749.00;0.49;255.93;0.00;0.00;0.62;;;;;35.70;1.00;;;;;;2280745;60;1007;-89
2023/07/17 08:56:49;312900.00;1.04;540.09;119669.00;0.40;207.51;;;;;35.60;1.00;;;;;;2280564;60;1068;-88
2023/07/17 08:59:17;110093.00;0.37;190.99;0.00;0.00;0.62;;;;;35.10;1.00;;;;;;2280501;60;2018;-88
2023/07/17 09:01:45;292841.00;0.98;505.61;69037.00;0.23;120.10;;;;;34.90;1.00;;;;;;2280589;60;1722;-88
2023/07/17 09:04:14;100246.00;0.33;174.00;0.00;0.00;0.62;;;;;35.30;1.00;;;;;;2280606;60;1551;-89
2023/07/17 09:06:41;476265.00;1.59;820.97;60542.00;0.20;105.41;;;;;35.50;1.00;;;;;;2280638;60;1675;-88
2023/07/17 09:09:10;227881.00;0.76;393.90;0.00;0.00;0.62;;;;;35.20;1.00;;;;;;2280668;60;1453;-89
2023/07/17 09:14:09;632874.00;2.11;1091.02;0.00;0.00;0.62;;;;;35.30;1.00;;;;;;2282450;60;1171;-89
2023/07/17 09:16:35;276332.00;0.92;477.23;738.00;0.00;1.90;;;;;34.60;1.00;;;;;;2280400;60;1647;-89
2023/07/17 09:19:03;391055.00;1.30;674.43;30557.00;0.10;53.55;;;;;34.60;1.00;;;;;;2280552;60;1032;-88
2023/07/17 09:21:30;650280.00;2.17;1121.12;0.00;0.00;0.62;;;;;34.10;1.00;;;;;;2287927;56;3570;-87
2023/07/17 09:23:58;200757.00;0.67;347.23;51042.00;0.17;88.99;;;;;33.80;1.00;;;;;;2280597;60;991;-89
2023/07/17 09:26:28;146578.00;0.49;253.91;0.00;0.00;0.62;;;;;34.40;1.00;;;;;;2280628;60;1013;-89
2023/07/17 09:28:57;208292.00;0.69;360.20;0.00;0.00;0.62;;;;;34.50;1.00;;;;;;2280395;60;1055;-88
2023/07/17 09:31:25;396808.00;1.32;684.32;25755.00;0.09;45.23;;;;;34.50;1.00;;;;;;2280421;60;1561;-88
2023/07/17 09:33:52;243984.00;0.81;421.60;0.00;0.00;0.62;;;;;34.40;1.00;;;;;;2280478;60;1101;-88
2023/07/17 09:36:21;294328.00;0.98;508.17;0.00;0.00;0.62;;;;;34.10;1.00;;;;;;2280562;60;1010;-89
2023/07/17 09:38:51;178932.00;0.60;309.65;0.00;0.00;0.62;;;;;33.80;1.00;;;;;;2280537;60;1738;-89
2023/07/17 09:41:19;423412.00;1.41;730.06;15920.00;0.05;28.20;;;;;33.10;1.00;;;;;;2280475;60;2003;-89
2023/07/17 09:43:54;288970.00;0.96;498.96;0.00;0.00;0.62;;;;;32.80;1.00;;;;;;2280418;60;1596;-87
2023/07/17 09:46:22;397394.00;1.32;685.33;0.00;0.00;0.62;;;;;32.90;1.00;;;;;;2280515;60;1711;-89
2023/07/17 09:48:52;219002.00;0.73;378.63;0.00;0.00;0.62;;;;;33.50;1.00;;;;;;2280432;60;1543;-89
2023/07/17 09:51:21;128198.00;0.43;222.22;0.00;0.00;0.62;;;;;33.20;1.00;;;;;;2280378;60;1382;-89
2023/07/17 09:53:49;593554.00;1.98;1023.09;121937.00;0.41;211.42;;;;;32.40;1.00;;;;;;2280296;60;998;-89
2023/07/17 09:56:17;123619.00;0.41;214.32;0.00;0.00;0.62;;;;;32.50;1.00;;;;;;2280499;60;1174;-88
2023/07/17 10:01:17;734805.00;2.45;1267.65;0.00;0.00;0.62;;;;;31.60;1.00;;;;;;2281791;60;1968;-89
2023/07/17 10:03:47;275265.00;0.92;475.40;71767.00;0.24;124.81;;;;;31.20;1.00;;;;;;2280213;60;1762;-88
2023/07/17 10:33:45;756614.00;2.52;1305.56;0.00;0.00;0.62;;;;;31.70;1.00;;;;;;2282530;61;1369;-92
2023/07/17 10:38:53;1168877.00;3.90;2034.05;0.00;0.00;0.62;;;;;32.00;1.00;;;;;;2278510;61;1283;-90
2023/07/17 10:41:29;556849.00;1.86;959.77;0.00;0.00;0.62;;;;;32.20;1.00;;;;;;2285366;56;3872;-88